Flight Track Log - Related Links

Times and Time Zones

All times are in EDT time to prevent confusion due to time zone crossing. See the LXJ549 flight status page for this flight to view local times or setup timezone preferences in your user account.

Time Position Orientation Groundspeed Altitude Reporting Facility
EDT Latitude Longitude Course Direction KTS MPH feet Rate Location/Type
Wed 05:06:15 PM 40.8167 -72.6667 207° Southwest 178 205 3,000  Level New York TRACON
Wed 05:07:15 PM 40.7667 -72.7000 207° Southwest 190 219 8,300 3,000 Climbing New York TRACON
Wed 05:08:15 PM 40.7500 -72.6167 105° East 290 334 9,000 350 Climbing New York TRACON
Wed 05:09:15 PM 40.8000 -72.5167 57° Northeast 314 361 9,000  Level New York TRACON
Wed 05:10:15 PM 40.8500 -72.4333 52° Northeast 316 364 9,000  Level New York TRACON
Wed 05:11:15 PM 40.9000 -72.3500 52° Northeast 313 360 9,000  Level New York TRACON
Wed 05:12:27 PM 40.9914 -72.2778 31° Northeast 331 381 9,000  Level Boston Center
Wed 05:13:28 PM 41.0686 -72.2281 26° Northeast 314 361 9,000  Level Boston Center
Wed 05:14:29 PM 41.1475 -72.1728 28° Northeast 313 360 9,000  Level Boston Center
Wed 05:15:42 PM 41.2411 -72.1117 26° Northeast 312 359 9,000  Level Boston Center
Wed 05:16:25 PM 41.2972 -72.0781 24° Northeast 309 356 9,000  Level Boston Center
Wed 05:17:25 PM 41.3786 -72.0444 17° North 303 349 9,000  Level Boston Center
Wed 05:18:26 PM 41.4639 -72.0244 10° North 302 348 9,000  Level Boston Center
Wed 05:19:27 PM 41.5472 -72.0047 10° North 304 350 9,000  Level Boston Center
Wed 05:20:22 PM 41.6242 -72.0069 359° North 299 344 9,000  Level Boston Center
Wed 05:21:11 PM 41.6889 -72.0119 357° North 297 342 9,000 -310 Level Boston Center
Wed 05:22:18 PM 41.7828 -72.0142 359° North 298 343 8,400 -756 Descending Boston Center
Wed 05:23:18 PM 41.8661 -72.0219 356° North 295 339 7,400 -661 Descending Boston Center
Wed 05:24:25 PM 41.9558 -72.0242 359° North 294 338 7,000 -188 Descending Boston Center
Wed 05:25:26 PM 42.0350 -72.0292 357° North 283 326 7,000 -328 Level Boston Center
Wed 05:26:33 PM 42.1203 -72.0119 North 283 326 6,300 -851 Descending Boston Center
Wed 05:27:40 PM 42.1847 -71.9386 40° Northeast 282 325 5,100 -614 Descending Boston Center
Wed 05:28:40 PM 42.2469 -71.8708 39° Northeast 291 335 5,000 -36 Descending Boston Center
Wed 05:30:25 PM 42.3667 -71.7333 40° Northeast 304 350 5,000 -302 Level KA90
Wed 05:31:19 PM 42.4167 -71.6667 45° Northeast 290 334 4,200 -684 Descending KA90
Wed 05:32:19 PM 42.4500 -71.5833 62° Northeast 280 322 3,700 -500 Descending KA90

Login

Don't have an account? Register now (free) for customized features, flight alerts, and more!